sensor_id;sensor_type;location;lat;lon;timestamp;temperature;humidity
77727;SHT30;68312;53.502;10.030;2023-09-30T00:02:14;12.52;92.04
77727;SHT30;68312;53.502;10.030;2023-09-30T00:04:39;12.55;92.14
77727;SHT30;68312;53.502;10.030;2023-09-30T00:07:05;12.52;92.09
77727;SHT30;68312;53.502;10.030;2023-09-30T00:09:30;12.49;91.99
77727;SHT30;68312;53.502;10.030;2023-09-30T00:11:56;12.40;92.03
77727;SHT30;68312;53.502;10.030;2023-09-30T00:14:21;12.36;92.06
77727;SHT30;68312;53.502;10.030;2023-09-30T00:16:47;12.33;92.20
77727;SHT30;68312;53.502;10.030;2023-09-30T00:19:12;12.33;92.32
77727;SHT30;68312;53.502;10.030;2023-09-30T00:21:39;12.35;92.45
77727;SHT30;68312;53.502;10.030;2023-09-30T00:24:05;12.33;92.45
77727;SHT30;68312;53.502;10.030;2023-09-30T00:26:30;12.32;92.41
77727;SHT30;68312;53.502;10.030;2023-09-30T00:32:38;12.25;92.44
77727;SHT30;68312;53.502;10.030;2023-09-30T00:35:05;12.21;92.47
77727;SHT30;68312;53.502;10.030;2023-09-30T00:37:40;12.19;92.52
77727;SHT30;68312;53.502;10.030;2023-09-30T00:40:08;12.19;92.64
77727;SHT30;68312;53.502;10.030;2023-09-30T00:42:40;12.18;92.43
77727;SHT30;68312;53.502;10.030;2023-09-30T00:45:07;12.12;92.49
77727;SHT30;68312;53.502;10.030;2023-09-30T00:47:34;12.14;92.52
77727;SHT30;68312;53.502;10.030;2023-09-30T00:50:01;12.12;92.56
77727;SHT30;68312;53.502;10.030;2023-09-30T00:52:31;12.18;92.65
77727;SHT30;68312;53.502;10.030;2023-09-30T00:54:57;12.28;92.69
77727;SHT30;68312;53.502;10.030;2023-09-30T00:57:23;12.39;92.56
77727;SHT30;68312;53.502;10.030;2023-09-30T00:59:50;12.49;92.16
77727;SHT30;68312;53.502;10.030;2023-09-30T01:02:18;12.49;91.76
77727;SHT30;68312;53.502;10.030;2023-09-30T01:04:44;12.53;91.43
77727;SHT30;68312;53.502;10.030;2023-09-30T01:07:09;12.56;91.09
77727;SHT30;68312;53.502;10.030;2023-09-30T01:09:37;12.61;90.69
77727;SHT30;68312;53.502;10.030;2023-09-30T01:12:03;12.59;90.50
77727;SHT30;68312;53.502;10.030;2023-09-30T01:14:34;12.57;90.30
77727;SHT30;68312;53.502;10.030;2023-09-30T01:17:00;12.57;90.32
77727;SHT30;68312;53.502;10.030;2023-09-30T01:19:25;12.53;90.27
77727;SHT30;68312;53.502;10.030;2023-09-30T01:22:02;12.47;90.36
77727;SHT30;68312;53.502;10.030;2023-09-30T01:24:42;12.43;90.48
77727;SHT30;68312;53.502;10.030;2023-09-30T01:27:08;12.39;90.65
77727;SHT30;68312;53.502;10.030;2023-09-30T01:29:35;12.36;90.76
77727;SHT30;68312;53.502;10.030;2023-09-30T01:32:05;12.35;90.86
77727;SHT30;68312;53.502;10.030;2023-09-30T01:34:34;12.32;90.85
77727;SHT30;68312;53.502;10.030;2023-09-30T01:37:00;12.29;90.98
77727;SHT30;68312;53.502;10.030;2023-09-30T01:39:25;12.29;90.99
77727;SHT30;68312;53.502;10.030;2023-09-30T01:41:51;12.25;90.99
77727;SHT30;68312;53.502;10.030;2023-09-30T01:44:16;12.21;91.03
77727;SHT30;68312;53.502;10.030;2023-09-30T01:46:42;12.15;91.17
77727;SHT30;68312;53.502;10.030;2023-09-30T01:49:07;12.08;91.20
77727;SHT30;68312;53.502;10.030;2023-09-30T01:51:32;12.05;91.30
77727;SHT30;68312;53.502;10.030;2023-09-30T01:53:58;12.01;91.44
77727;SHT30;68312;53.502;10.030;2023-09-30T01:56:23;11.98;91.67
77727;SHT30;68312;53.502;10.030;2023-09-30T01:58:49;11.95;91.82
77727;SHT30;68312;53.502;10.030;2023-09-30T02:01:15;12.02;91.94
77727;SHT30;68312;53.502;10.030;2023-09-30T02:03:41;12.06;91.88
77727;SHT30;68312;53.502;10.030;2023-09-30T02:06:08;12.05;91.66
77727;SHT30;68312;53.502;10.030;2023-09-30T02:08:33;12.05;91.68
77727;SHT30;68312;53.502;10.030;2023-09-30T02:11:02;12.09;91.65
77727;SHT30;68312;53.502;10.030;2023-09-30T02:13:28;12.12;91.59
77727;SHT30;68312;53.502;10.030;2023-09-30T02:15:53;12.04;91.45
77727;SHT30;68312;53.502;10.030;2023-09-30T02:18:21;11.99;91.52
77727;SHT30;68312;53.502;10.030;2023-09-30T02:20:47;12.02;91.69
77727;SHT30;68312;53.502;10.030;2023-09-30T02:23:12;12.02;91.80
77727;SHT30;68312;53.502;10.030;2023-09-30T02:25:39;12.04;91.73
77727;SHT30;68312;53.502;10.030;2023-09-30T02:28:06;12.02;91.70
77727;SHT30;68312;53.502;10.030;2023-09-30T02:30:31;12.02;91.77
77727;SHT30;68312;53.502;10.030;2023-09-30T02:32:57;12.04;91.88
77727;SHT30;68312;53.502;10.030;2023-09-30T02:35:23;11.99;91.68
77727;SHT30;68312;53.502;10.030;2023-09-30T02:37:54;11.97;91.83
77727;SHT30;68312;53.502;10.030;2023-09-30T02:40:20;11.97;91.92
77727;SHT30;68312;53.502;10.030;2023-09-30T02:42:46;11.91;91.88
77727;SHT30;68312;53.502;10.030;2023-09-30T02:45:15;11.82;92.01
77727;SHT30;68312;53.502;10.030;2023-09-30T02:47:42;11.78;92.26
77727;SHT30;68312;53.502;10.030;2023-09-30T02:50:09;11.88;92.52
77727;SHT30;68312;53.502;10.030;2023-09-30T02:52:40;11.84;92.43
77727;SHT30;68312;53.502;10.030;2023-09-30T02:55:10;11.84;92.53
77727;SHT30;68312;53.502;10.030;2023-09-30T02:57:36;11.82;92.54
77727;SHT30;68312;53.502;10.030;2023-09-30T03:00:06;11.81;92.58
77727;SHT30;68312;53.502;10.030;2023-09-30T03:02:53;11.79;92.77
77727;SHT30;68312;53.502;10.030;2023-09-30T03:05:20;11.81;92.75
77727;SHT30;68312;53.502;10.030;2023-09-30T03:07:46;11.81;92.93
77727;SHT30;68312;53.502;10.030;2023-09-30T03:10:12;11.78;92.77
77727;SHT30;68312;53.502;10.030;2023-09-30T03:12:39;11.75;92.89
77727;SHT30;68312;53.502;10.030;2023-09-30T03:15:05;11.75;92.91
77727;SHT30;68312;53.502;10.030;2023-09-30T03:17:31;11.75;93.06
77727;SHT30;68312;53.502;10.030;2023-09-30T03:19:58;11.75;93.09
77727;SHT30;68312;53.502;10.030;2023-09-30T03:22:25;11.75;93.17
77727;SHT30;68312;53.502;10.030;2023-09-30T03:24:52;11.75;93.21
77727;SHT30;68312;53.502;10.030;2023-09-30T03:27:19;11.82;93.20
77727;SHT30;68312;53.502;10.030;2023-09-30T03:33:25;11.84;93.04
77727;SHT30;68312;53.502;10.030;2023-09-30T03:35:51;11.81;92.90
77727;SHT30;68312;53.502;10.030;2023-09-30T03:38:17;11.74;92.84
77727;SHT30;68312;53.502;10.030;2023-09-30T03:40:45;11.71;93.05
77727;SHT30;68312;53.502;10.030;2023-09-30T03:43:14;11.73;93.11
77727;SHT30;68312;53.502;10.030;2023-09-30T03:45:40;11.68;93.09
77727;SHT30;68312;53.502;10.030;2023-09-30T03:48:07;11.70;93.23
77727;SHT30;68312;53.502;10.030;2023-09-30T03:50:33;11.70;93.31
77727;SHT30;68312;53.502;10.030;2023-09-30T03:53:07;11.75;93.36
77727;SHT30;68312;53.502;10.030;2023-09-30T03:55:33;11.77;93.29
77727;SHT30;68312;53.502;10.030;2023-09-30T03:57:59;11.77;93.26
77727;SHT30;68312;53.502;10.030;2023-09-30T04:00:25;11.74;93.15
77727;SHT30;68312;53.502;10.030;2023-09-30T04:02:51;11.82;93.29
77727;SHT30;68312;53.502;10.030;2023-09-30T04:05:23;11.87;93.06
77727;SHT30;68312;53.502;10.030;2023-09-30T04:07:54;11.91;92.97
77727;SHT30;68312;53.502;10.030;2023-09-30T04:10:20;11.89;92.78
77727;SHT30;68312;53.502;10.030;2023-09-30T04:12:48;11.89;92.72
77727;SHT30;68312;53.502;10.030;2023-09-30T04:15:14;11.87;92.59
77727;SHT30;68312;53.502;10.030;2023-09-30T04:17:39;11.81;92.62
77727;SHT30;68312;53.502;10.030;2023-09-30T04:20:08;11.88;92.71
77727;SHT30;68312;53.502;10.030;2023-09-30T04:22:42;11.92;92.59
77727;SHT30;68312;53.502;10.030;2023-09-30T04:25:14;11.95;92.46
77727;SHT30;68312;53.502;10.030;2023-09-30T04:27:42;11.95;92.26
77727;SHT30;68312;53.502;10.030;2023-09-30T04:30:08;11.92;92.35
77727;SHT30;68312;53.502;10.030;2023-09-30T04:32:35;11.98;92.34
77727;SHT30;68312;53.502;10.030;2023-09-30T04:38:42;12.02;92.07
77727;SHT30;68312;53.502;10.030;2023-09-30T04:41:08;12.05;92.01
77727;SHT30;68312;53.502;10.030;2023-09-30T04:43:34;12.05;91.93
77727;SHT30;68312;53.502;10.030;2023-09-30T04:46:00;12.02;91.91
77727;SHT30;68312;53.502;10.030;2023-09-30T04:48:26;12.06;91.79
77727;SHT30;68312;53.502;10.030;2023-09-30T04:50:52;12.05;91.86
77727;SHT30;68312;53.502;10.030;2023-09-30T04:53:18;12.02;91.86
77727;SHT30;68312;53.502;10.030;2023-09-30T04:55:46;12.02;91.93
77727;SHT30;68312;53.502;10.030;2023-09-30T04:58:15;12.06;91.95
77727;SHT30;68312;53.502;10.030;2023-09-30T05:00:41;12.05;91.89
77727;SHT30;68312;53.502;10.030;2023-09-30T05:03:06;12.02;91.69
77727;SHT30;68312;53.502;10.030;2023-09-30T05:05:32;11.99;91.74
77727;SHT30;68312;53.502;10.030;2023-09-30T05:07:57;11.98;91.89
77727;SHT30;68312;53.502;10.030;2023-09-30T05:10:25;11.98;91.98
77727;SHT30;68312;53.502;10.030;2023-09-30T05:12:50;11.98;92.05
77727;SHT30;68312;53.502;10.030;2023-09-30T05:15:21;11.97;92.03
77727;SHT30;68312;53.502;10.030;2023-09-30T05:17:48;11.99;92.13
77727;SHT30;68312;53.502;10.030;2023-09-30T05:20:15;12.05;92.02
77727;SHT30;68312;53.502;10.030;2023-09-30T05:22:43;12.05;91.81
77727;SHT30;68312;53.502;10.030;2023-09-30T05:25:15;12.06;91.75
77727;SHT30;68312;53.502;10.030;2023-09-30T05:27:42;12.09;91.68
77727;SHT30;68312;53.502;10.030;2023-09-30T05:30:08;12.12;91.62
77727;SHT30;68312;53.502;10.030;2023-09-30T05:32:35;12.08;91.67
77727;SHT30;68312;53.502;10.030;2023-09-30T05:35:04;12.09;91.67
77727;SHT30;68312;53.502;10.030;2023-09-30T05:37:30;12.05;91.66
77727;SHT30;68312;53.502;10.030;2023-09-30T05:39:56;12.06;91.83
77727;SHT30;68312;53.502;10.030;2023-09-30T05:42:21;12.11;91.75
77727;SHT30;68312;53.502;10.030;2023-09-30T05:44:47;12.09;91.72
77727;SHT30;68312;53.502;10.030;2023-09-30T05:47:14;12.15;91.54
77727;SHT30;68312;53.502;10.030;2023-09-30T05:49:41;12.15;91.55
77727;SHT30;68312;53.502;10.030;2023-09-30T05:52:07;12.19;91.42
77727;SHT30;68312;53.502;10.030;2023-09-30T05:54:32;12.22;91.36
77727;SHT30;68312;53.502;10.030;2023-09-30T05:56:58;12.21;91.34
77727;SHT30;68312;53.502;10.030;2023-09-30T05:59:25;12.22;91.34
77727;SHT30;68312;53.502;10.030;2023-09-30T06:01:51;12.22;91.31
77727;SHT30;68312;53.502;10.030;2023-09-30T06:04:17;12.25;91.39
77727;SHT30;68312;53.502;10.030;2023-09-30T06:06:42;12.24;91.38
77727;SHT30;68312;53.502;10.030;2023-09-30T06:09:08;12.24;91.38
77727;SHT30;68312;53.502;10.030;2023-09-30T06:11:34;12.26;91.39
77727;SHT30;68312;53.502;10.030;2023-09-30T06:14:01;12.26;91.36
77727;SHT30;68312;53.502;10.030;2023-09-30T06:16:28;12.32;91.31
77727;SHT30;68312;53.502;10.030;2023-09-30T06:18:57;12.33;91.11
77727;SHT30;68312;53.502;10.030;2023-09-30T06:21:25;12.37;91.03
77727;SHT30;68312;53.502;10.030;2023-09-30T06:23:54;12.40;90.91
77727;SHT30;68312;53.502;10.030;2023-09-30T06:26:20;12.40;90.76
77727;SHT30;68312;53.502;10.030;2023-09-30T06:28:46;12.45;90.74
77727;SHT30;68312;53.502;10.030;2023-09-30T06:31:13;12.43;90.56
77727;SHT30;68312;53.502;10.030;2023-09-30T06:33:39;12.43;90.58
77727;SHT30;68312;53.502;10.030;2023-09-30T06:36:15;12.45;90.53
77727;SHT30;68312;53.502;10.030;2023-09-30T06:38:41;12.42;90.63
77727;SHT30;68312;53.502;10.030;2023-09-30T06:41:15;12.49;90.55
77727;SHT30;68312;53.502;10.030;2023-09-30T06:43:41;12.55;90.45
77727;SHT30;68312;53.502;10.030;2023-09-30T06:46:08;12.61;90.12
77727;SHT30;68312;53.502;10.030;2023-09-30T06:48:37;12.73;89.75
77727;SHT30;68312;53.502;10.030;2023-09-30T06:51:02;12.81;89.68
77727;SHT30;68312;53.502;10.030;2023-09-30T06:53:28;12.91;89.35
77727;SHT30;68312;53.502;10.030;2023-09-30T06:55:54;13.01;88.82
77727;SHT30;68312;53.502;10.030;2023-09-30T06:58:19;13.14;88.43
77727;SHT30;68312;53.502;10.030;2023-09-30T07:00:52;13.24;88.22
77727;SHT30;68312;53.502;10.030;2023-09-30T07:03:21;13.24;87.85
77727;SHT30;68312;53.502;10.030;2023-09-30T07:05:46;13.34;87.89
77727;SHT30;68312;53.502;10.030;2023-09-30T07:08:17;13.42;87.31
77727;SHT30;68312;53.502;10.030;2023-09-30T07:10:46;13.46;87.15
77727;SHT30;68312;53.502;10.030;2023-09-30T07:13:12;13.56;86.99
77727;SHT30;68312;53.502;10.030;2023-09-30T07:15:37;13.62;87.10
77727;SHT30;68312;53.502;10.030;2023-09-30T07:18:03;13.66;86.34
77727;SHT30;68312;53.502;10.030;2023-09-30T07:20:29;13.73;86.44
77727;SHT30;68312;53.502;10.030;2023-09-30T07:23:00;13.82;86.04
77727;SHT30;68312;53.502;10.030;2023-09-30T07:25:27;13.89;85.64
77727;SHT30;68312;53.502;10.030;2023-09-30T07:27:52;14.02;85.21
77727;SHT30;68312;53.502;10.030;2023-09-30T07:30:18;14.02;84.89
77727;SHT30;68312;53.502;10.030;2023-09-30T07:32:44;14.06;85.17
77727;SHT30;68312;53.502;10.030;2023-09-30T07:35:13;14.21;84.24
77727;SHT30;68312;53.502;10.030;2023-09-30T07:37:43;14.34;84.26
77727;SHT30;68312;53.502;10.030;2023-09-30T07:40:09;14.42;83.95
77727;SHT30;68312;53.502;10.030;2023-09-30T07:42:36;14.42;83.61
77727;SHT30;68312;53.502;10.030;2023-09-30T07:45:05;14.44;83.63
77727;SHT30;68312;53.502;10.030;2023-09-30T07:47:31;14.57;83.31
77727;SHT30;68312;53.502;10.030;2023-09-30T07:50:00;14.61;83.15
77727;SHT30;68312;53.502;10.030;2023-09-30T07:52:27;14.61;82.67
77727;SHT30;68312;53.502;10.030;2023-09-30T07:54:52;14.68;82.66
77727;SHT30;68312;53.502;10.030;2023-09-30T07:57:18;14.85;83.46
77727;SHT30;68312;53.502;10.030;2023-09-30T07:59:43;14.93;82.36
77727;SHT30;68312;53.502;10.030;2023-09-30T08:02:09;15.09;82.36
77727;SHT30;68312;53.502;10.030;2023-09-30T08:04:34;15.27;81.44
77727;SHT30;68312;53.502;10.030;2023-09-30T08:10:42;15.60;80.54
77727;SHT30;68312;53.502;10.030;2023-09-30T08:13:08;15.70;79.44
77727;SHT30;68312;53.502;10.030;2023-09-30T08:15:35;15.95;78.69
77727;SHT30;68312;53.502;10.030;2023-09-30T08:18:00;16.13;77.81
77727;SHT30;68312;53.502;10.030;2023-09-30T08:20:27;16.46;77.49
77727;SHT30;68312;53.502;10.030;2023-09-30T08:22:53;16.85;76.08
77727;SHT30;68312;53.502;10.030;2023-09-30T08:25:18;17.32;74.34
77727;SHT30;68312;53.502;10.030;2023-09-30T08:27:44;17.76;71.94
77727;SHT30;68312;53.502;10.030;2023-09-30T08:30:15;18.65;68.05
77727;SHT30;68312;53.502;10.030;2023-09-30T08:32:41;19.34;66.03
77727;SHT30;68312;53.502;10.030;2023-09-30T08:35:07;19.34;65.10
77727;SHT30;68312;53.502;10.030;2023-09-30T08:37:33;19.88;64.08
77727;SHT30;68312;53.502;10.030;2023-09-30T08:39:59;20.12;63.78
77727;SHT30;68312;53.502;10.030;2023-09-30T08:42:27;20.05;63.11
77727;SHT30;68312;53.502;10.030;2023-09-30T08:48:38;19.28;66.53
77727;SHT30;68312;53.502;10.030;2023-09-30T08:51:03;18.98;67.35
77727;SHT30;68312;53.502;10.030;2023-09-30T08:53:29;18.89;67.76
77727;SHT30;68312;53.502;10.030;2023-09-30T08:55:57;18.44;68.81
77727;SHT30;68312;53.502;10.030;2023-09-30T08:58:28;18.63;70.16
77727;SHT30;68312;53.502;10.030;2023-09-30T09:00:55;18.92;69.64
77727;SHT30;68312;53.502;10.030;2023-09-30T09:03:21;18.73;67.91
77727;SHT30;68312;53.502;10.030;2023-09-30T09:05:54;18.65;68.30
77727;SHT30;68312;53.502;10.030;2023-09-30T09:08:25;18.73;69.37
77727;SHT30;68312;53.502;10.030;2023-09-30T09:10:59;18.96;69.58
77727;SHT30;68312;53.502;10.030;2023-09-30T09:13:27;19.13;66.84
77727;SHT30;68312;53.502;10.030;2023-09-30T09:16:07;18.89;67.26
77727;SHT30;68312;53.502;10.030;2023-09-30T09:18:33;19.38;66.84
77727;SHT30;68312;53.502;10.030;2023-09-30T09:21:13;19.75;65.65
77727;SHT30;68312;53.502;10.030;2023-09-30T09:23:45;19.77;64.31
77727;SHT30;68312;53.502;10.030;2023-09-30T09:26:13;19.89;64.11
77727;SHT30;68312;53.502;10.030;2023-09-30T09:28:47;19.49;64.88
77727;SHT30;68312;53.502;10.030;2023-09-30T09:31:25;19.60;64.88
77727;SHT30;68312;53.502;10.030;2023-09-30T09:33:51;19.74;65.53
77727;SHT30;68312;53.502;10.030;2023-09-30T09:36:17;20.04;63.07
77727;SHT30;68312;53.502;10.030;2023-09-30T09:38:47;20.61;62.74
77727;SHT30;68312;53.502;10.030;2023-09-30T09:41:14;21.66;61.85
77727;SHT30;68312;53.502;10.030;2023-09-30T09:43:42;21.82;58.12
77727;SHT30;68312;53.502;10.030;2023-09-30T09:46:08;22.51;56.54
77727;SHT30;68312;53.502;10.030;2023-09-30T09:48:36;22.62;54.41
77727;SHT30;68312;53.502;10.030;2023-09-30T09:51:04;22.30;55.19
77727;SHT30;68312;53.502;10.030;2023-09-30T09:53:36;22.47;55.15
77727;SHT30;68312;53.502;10.030;2023-09-30T09:56:03;21.85;56.92
77727;SHT30;68312;53.502;10.030;2023-09-30T09:58:33;22.48;56.19
77727;SHT30;68312;53.502;10.030;2023-09-30T10:01:03;22.30;56.19
77727;SHT30;68312;53.502;10.030;2023-09-30T10:03:31;21.65;56.84
77727;SHT30;68312;53.502;10.030;2023-09-30T10:05:59;21.72;56.12
77727;SHT30;68312;53.502;10.030;2023-09-30T10:08:38;22.00;55.78
77727;SHT30;68312;53.502;10.030;2023-09-30T10:11:07;22.18;55.41
77727;SHT30;68312;53.502;10.030;2023-09-30T10:13:57;22.08;56.19
77727;SHT30;68312;53.502;10.030;2023-09-30T10:16:50;22.89;53.94
77727;SHT30;68312;53.502;10.030;2023-09-30T10:19:20;23.47;52.39
77727;SHT30;68312;53.502;10.030;2023-09-30T10:24:41;23.40;53.65
77727;SHT30;68312;53.502;10.030;2023-09-30T10:29:57;23.46;51.80
77727;SHT30;68312;53.502;10.030;2023-09-30T10:40:50;22.56;56.05
77727;SHT30;68312;53.502;10.030;2023-09-30T10:43:35;23.34;53.88
77727;SHT30;68312;53.502;10.030;2023-09-30T10:46:03;23.28;54.44
77727;SHT30;68312;53.502;10.030;2023-09-30T10:48:34;23.46;51.49
77727;SHT30;68312;53.502;10.030;2023-09-30T10:51:15;22.91;52.74
77727;SHT30;68312;53.502;10.030;2023-09-30T10:53:50;23.22;51.35
77727;SHT30;68312;53.502;10.030;2023-09-30T10:56:18;23.41;50.91
77727;SHT30;68312;53.502;10.030;2023-09-30T10:58:46;23.00;51.61
77727;SHT30;68312;53.502;10.030;2023-09-30T11:01:14;23.09;53.46
77727;SHT30;68312;53.502;10.030;2023-09-30T11:03:41;23.37;51.63
77727;SHT30;68312;53.502;10.030;2023-09-30T11:06:07;23.04;54.74
77727;SHT30;68312;53.502;10.030;2023-09-30T11:08:33;23.19;50.99
77727;SHT30;68312;53.502;10.030;2023-09-30T11:10:59;22.95;53.07
77727;SHT30;68312;53.502;10.030;2023-09-30T11:13:33;22.89;52.95
77727;SHT30;68312;53.502;10.030;2023-09-30T11:16:05;22.82;52.67
77727;SHT30;68312;53.502;10.030;2023-09-30T11:18:31;22.68;54.37
77727;SHT30;68312;53.502;10.030;2023-09-30T11:21:11;21.85;56.19
77727;SHT30;68312;53.502;10.030;2023-09-30T11:23:40;21.94;57.17
77727;SHT30;68312;53.502;10.030;2023-09-30T11:26:06;21.98;54.60
77727;SHT30;68312;53.502;10.030;2023-09-30T11:28:44;21.42;58.62
77727;SHT30;68312;53.502;10.030;2023-09-30T11:31:12;21.28;58.01
77727;SHT30;68312;53.502;10.030;2023-09-30T11:33:57;20.73;57.60
77727;SHT30;68312;53.502;10.030;2023-09-30T11:36:26;20.53;59.04
77727;SHT30;68312;53.502;10.030;2023-09-30T11:38:52;21.04;59.18
77727;SHT30;68312;53.502;10.030;2023-09-30T11:41:20;21.80;56.14
77727;SHT30;68312;53.502;10.030;2023-09-30T11:44:00;21.56;55.85
77727;SHT30;68312;53.502;10.030;2023-09-30T11:46:27;21.72;55.31
77727;SHT30;68312;53.502;10.030;2023-09-30T11:49:02;21.55;54.28
77727;SHT30;68312;53.502;10.030;2023-09-30T11:51:29;22.10;53.59
77727;SHT30;68312;53.502;10.030;2023-09-30T11:53:55;22.49;56.36
77727;SHT30;68312;53.502;10.030;2023-09-30T11:56:23;22.43;52.66
77727;SHT30;68312;53.502;10.030;2023-09-30T11:58:55;22.41;50.99
77727;SHT30;68312;53.502;10.030;2023-09-30T12:01:21;22.17;51.28
77727;SHT30;68312;53.502;10.030;2023-09-30T12:03:50;22.21;52.72
77727;SHT30;68312;53.502;10.030;2023-09-30T12:06:17;22.15;54.25
77727;SHT30;68312;53.502;10.030;2023-09-30T12:08:43;21.94;52.14
77727;SHT30;68312;53.502;10.030;2023-09-30T12:11:10;22.25;54.00
77727;SHT30;68312;53.502;10.030;2023-09-30T12:13:38;22.24;51.16
77727;SHT30;68312;53.502;10.030;2023-09-30T12:16:04;23.17;49.89
77727;SHT30;68312;53.502;10.030;2023-09-30T12:18:30;23.49;49.92
77727;SHT30;68312;53.502;10.030;2023-09-30T12:20:55;22.85;47.63
77727;SHT30;68312;53.502;10.030;2023-09-30T12:23:22;22.77;48.89
77727;SHT30;68312;53.502;10.030;2023-09-30T12:25:49;23.24;49.54
77727;SHT30;68312;53.502;10.030;2023-09-30T12:28:14;23.78;52.72
77727;SHT30;68312;53.502;10.030;2023-09-30T12:30:40;23.86;47.35
77727;SHT30;68312;53.502;10.030;2023-09-30T12:33:07;23.86;48.49
77727;SHT30;68312;53.502;10.030;2023-09-30T12:35:33;22.88;48.34
77727;SHT30;68312;53.502;10.030;2023-09-30T12:37:59;23.16;50.31
77727;SHT30;68312;53.502;10.030;2023-09-30T12:40:24;22.88;49.29
77727;SHT30;68312;53.502;10.030;2023-09-30T12:42:50;23.39;51.47
77727;SHT30;68312;53.502;10.030;2023-09-30T12:45:16;23.23;48.22
77727;SHT30;68312;53.502;10.030;2023-09-30T12:47:44;23.37;51.27
77727;SHT30;68312;53.502;10.030;2023-09-30T12:50:10;22.55;50.36
77727;SHT30;68312;53.502;10.030;2023-09-30T12:52:36;22.08;53.37
77727;SHT30;68312;53.502;10.030;2023-09-30T12:55:02;22.13;49.54
77727;SHT30;68312;53.502;10.030;2023-09-30T12:57:28;21.48;51.83
77727;SHT30;68312;53.502;10.030;2023-09-30T12:59:53;20.94;53.55
77727;SHT30;68312;53.502;10.030;2023-09-30T13:02:19;20.84;55.14
77727;SHT30;68312;53.502;10.030;2023-09-30T13:04:45;20.67;53.39
77727;SHT30;68312;53.502;10.030;2023-09-30T13:07:12;20.32;56.29
77727;SHT30;68312;53.502;10.030;2023-09-30T13:09:39;20.49;55.35
77727;SHT30;68312;53.502;10.030;2023-09-30T13:12:05;20.50;53.61
77727;SHT30;68312;53.502;10.030;2023-09-30T13:14:30;20.39;55.73
77727;SHT30;68312;53.502;10.030;2023-09-30T13:16:56;20.28;56.63
77727;SHT30;68312;53.502;10.030;2023-09-30T13:19:22;20.30;55.62
77727;SHT30;68312;53.502;10.030;2023-09-30T13:21:51;20.33;55.55
77727;SHT30;68312;53.502;10.030;2023-09-30T13:24:22;20.90;53.85
77727;SHT30;68312;53.502;10.030;2023-09-30T13:26:48;21.53;53.64
77727;SHT30;68312;53.502;10.030;2023-09-30T13:29:15;22.15;51.55
77727;SHT30;68312;53.502;10.030;2023-09-30T13:31:42;22.30;51.52
77727;SHT30;68312;53.502;10.030;2023-09-30T13:34:09;22.07;51.11
77727;SHT30;68312;53.502;10.030;2023-09-30T13:36:35;21.98;52.69
77727;SHT30;68312;53.502;10.030;2023-09-30T13:39:01;22.24;52.00
77727;SHT30;68312;53.502;10.030;2023-09-30T13:41:27;21.70;53.97
77727;SHT30;68312;53.502;10.030;2023-09-30T13:43:53;21.45;53.74
77727;SHT30;68312;53.502;10.030;2023-09-30T13:46:19;21.66;53.35
77727;SHT30;68312;53.502;10.030;2023-09-30T13:48:48;22.04;54.10
77727;SHT30;68312;53.502;10.030;2023-09-30T13:51:17;22.28;51.90
77727;SHT30;68312;53.502;10.030;2023-09-30T13:53:43;21.85;52.31
77727;SHT30;68312;53.502;10.030;2023-09-30T13:56:08;21.89;53.75
77727;SHT30;68312;53.502;10.030;2023-09-30T13:58:36;21.76;54.12
77727;SHT30;68312;53.502;10.030;2023-09-30T14:01:02;21.08;54.93
77727;SHT30;68312;53.502;10.030;2023-09-30T14:03:27;20.43;55.27
77727;SHT30;68312;53.502;10.030;2023-09-30T14:05:54;19.96;56.46
77727;SHT30;68312;53.502;10.030;2023-09-30T14:08:19;20.29;57.00
77727;SHT30;68312;53.502;10.030;2023-09-30T14:10:45;20.30;58.07
77727;SHT30;68312;53.502;10.030;2023-09-30T14:13:10;20.18;56.51
77727;SHT30;68312;53.502;10.030;2023-09-30T14:15:36;19.78;57.96
77727;SHT30;68312;53.502;10.030;2023-09-30T14:18:03;19.31;58.61
77727;SHT30;68312;53.502;10.030;2023-09-30T14:20:29;19.14;60.11
77727;SHT30;68312;53.502;10.030;2023-09-30T14:22:55;18.92;59.88
77727;SHT30;68312;53.502;10.030;2023-09-30T14:25:21;18.85;61.69
77727;SHT30;68312;53.502;10.030;2023-09-30T14:27:48;18.61;60.89
77727;SHT30;68312;53.502;10.030;2023-09-30T14:30:16;18.52;60.96
77727;SHT30;68312;53.502;10.030;2023-09-30T14:32:42;18.42;61.67
77727;SHT30;68312;53.502;10.030;2023-09-30T14:35:09;18.38;61.70
77727;SHT30;68312;53.502;10.030;2023-09-30T14:37:35;18.40;62.49
77727;SHT30;68312;53.502;10.030;2023-09-30T14:40:01;18.33;61.17
77727;SHT30;68312;53.502;10.030;2023-09-30T14:42:30;18.41;62.91
77727;SHT30;68312;53.502;10.030;2023-09-30T14:44:56;18.48;61.81
77727;SHT30;68312;53.502;10.030;2023-09-30T14:47:22;18.52;60.63
77727;SHT30;68312;53.502;10.030;2023-09-30T14:49:47;18.45;61.35
77727;SHT30;68312;53.502;10.030;2023-09-30T14:52:13;18.52;61.84
77727;SHT30;68312;53.502;10.030;2023-09-30T14:54:39;18.54;60.22
77727;SHT30;68312;53.502;10.030;2023-09-30T14:57:04;18.58;61.54
77727;SHT30;68312;53.502;10.030;2023-09-30T14:59:33;18.55;61.99
77727;SHT30;68312;53.502;10.030;2023-09-30T15:01:59;18.49;60.38
77727;SHT30;68312;53.502;10.030;2023-09-30T15:04:25;18.47;62.16
77727;SHT30;68312;53.502;10.030;2023-09-30T15:06:50;18.40;62.66
77727;SHT30;68312;53.502;10.030;2023-09-30T15:09:15;18.37;62.05
77727;SHT30;68312;53.502;10.030;2023-09-30T15:11:41;18.37;60.72
77727;SHT30;68312;53.502;10.030;2023-09-30T15:14:07;18.40;61.59
77727;SHT30;68312;53.502;10.030;2023-09-30T15:16:33;18.47;62.66
77727;SHT30;68312;53.502;10.030;2023-09-30T15:18:58;18.42;63.10
77727;SHT30;68312;53.502;10.030;2023-09-30T15:21:24;18.34;62.39
77727;SHT30;68312;53.502;10.030;2023-09-30T15:23:50;18.30;64.12
77727;SHT30;68312;53.502;10.030;2023-09-30T15:26:16;18.27;64.54
77727;SHT30;68312;53.502;10.030;2023-09-30T15:28:41;18.13;62.99
77727;SHT30;68312;53.502;10.030;2023-09-30T15:31:08;18.14;64.84
77727;SHT30;68312;53.502;10.030;2023-09-30T15:33:34;18.20;63.42
77727;SHT30;68312;53.502;10.030;2023-09-30T15:36:14;18.25;63.24
77727;SHT30;68312;53.502;10.030;2023-09-30T15:38:42;18.30;64.03
77727;SHT30;68312;53.502;10.030;2023-09-30T15:41:11;18.28;62.87
77727;SHT30;68312;53.502;10.030;2023-09-30T15:43:37;18.24;63.00
77727;SHT30;68312;53.502;10.030;2023-09-30T15:46:04;18.15;63.79
77727;SHT30;68312;53.502;10.030;2023-09-30T15:48:29;18.05;63.36
77727;SHT30;68312;53.502;10.030;2023-09-30T15:50:55;17.96;64.82